Time;durP1;ratioP1;P1;durP2;ratioP2;P2;SDS_P1;SDS_P2;PMS_P1;PMS_P2;Temp;Humidity;BMP_temperature;BMP_pressure;BME280_temperature;BME280_humidity;BME280_pressure;Samples;Min_cycle;Max_cycle;Signal;HPM_P1;HPM_P2
2022/11/30 00:01:23;;;;;;;26.27;13.23;;;6.40;99.90;;;;;;5079123;28;20180;-58
2022/11/30 00:03:53;;;;;;;24.53;13.53;;;6.80;99.90;;;;;;5089682;28;20233;-58
2022/11/30 00:06:22;;;;;;;26.53;13.93;;;6.50;99.90;;;;;;5091523;28;20181;-58
2022/11/30 00:08:48;;;;;;;32.87;14.50;;;6.50;99.90;;;;;;5075940;28;20263;-58
2022/11/30 00:11:20;;;;;;;28.43;12.77;;;6.40;99.90;;;;;;5081300;28;20219;-58
2022/11/30 00:13:46;;;;;;;26.13;13.87;;;6.40;99.90;;;;;;5082358;28;20647;-58
2022/11/30 00:16:12;;;;;;;30.33;15.17;;;6.50;99.90;;;;;;5072306;28;20204;-58
2022/11/30 00:18:38;;;;;;;31.20;15.70;;;6.60;99.90;;;;;;5081424;28;20579;-58
2022/11/30 00:21:07;;;;;;;35.10;15.97;;;6.50;99.90;;;;;;5077793;28;20586;-58
2022/11/30 00:23:38;;;;;;;33.57;15.93;;;6.50;99.90;;;;;;5081857;28;20187;-58
2022/11/30 00:26:07;;;;;;;33.73;16.20;;;6.40;99.90;;;;;;5087529;28;20176;-58
2022/11/30 00:28:33;;;;;;;33.10;16.57;;;6.40;99.90;;;;;;5074458;28;20184;-59
2022/11/30 00:31:00;;;;;;;38.00;16.00;;;6.70;99.90;;;;;;5075260;28;20307;-59
2022/11/30 00:33:27;;;;;;;34.33;15.80;;;6.30;99.90;;;;;;5072880;28;20184;-58
2022/11/30 00:36:04;;;;;;;32.60;15.93;;;6.60;99.90;;;;;;5072550;28;20596;-58
2022/11/30 00:38:34;;;;;;;36.27;17.10;;;6.50;99.90;;;;;;5071959;28;20176;-58
2022/11/30 00:41:00;;;;;;;35.33;16.73;;;6.40;99.90;;;;;;5073943;28;20208;-58
2022/11/30 00:43:26;;;;;;;31.23;14.93;;;6.50;99.90;;;;;;5034989;28;1086038;-58
2022/11/30 00:45:52;;;;;;;33.33;15.67;;;;;;;;;;5081058;28;20185;-58
2022/11/30 00:48:18;;;;;;;35.30;15.93;;;6.50;99.90;;;;;;5072421;28;20267;-58
2022/11/30 00:50:44;;;;;;;33.80;16.13;;;6.80;99.90;;;;;;5072698;28;20291;-59
2022/11/30 00:53:10;;;;;;;31.63;15.93;;;6.60;99.90;;;;;;5072879;28;20183;-59
2022/11/30 00:55:35;;;;;;;38.20;17.40;;;6.50;99.90;;;;;;5072179;28;20192;-59
2022/11/30 00:58:01;;;;;;;34.93;15.97;;;6.40;99.90;;;;;;5078460;28;20200;-59
2022/11/30 01:00:27;;;;;;;33.60;15.43;;;6.50;99.90;;;;;;5074568;28;20689;-59
2022/11/30 01:02:54;;;;;;;38.20;16.53;;;6.50;99.90;;;;;;5072268;28;20177;-59
2022/11/30 01:05:20;;;;;;;31.70;15.23;;;6.80;99.90;;;;;;5075643;28;20259;-59
2022/11/30 01:07:46;;;;;;;30.73;15.43;;;6.50;99.90;;;;;;5093874;28;20254;-59
2022/11/30 01:10:12;;;;;;;27.77;15.47;;;;;;;;;;5095500;28;20238;-59
2022/11/30 01:12:37;;;;;;;34.93;16.80;;;6.50;99.90;;;;;;5071960;28;20668;-59
2022/11/30 01:15:03;;;;;;;35.80;15.73;;;6.20;99.90;;;;;;5080804;28;20180;-59
2022/11/30 01:17:29;;;;;;;35.43;15.70;;;6.50;99.90;;;;;;5087975;28;20182;-59
2022/11/30 01:19:54;;;;;;;33.80;16.23;;;6.40;99.90;;;;;;5091947;28;20171;-59
2022/11/30 01:22:20;;;;;;;36.37;16.47;;;6.40;99.90;;;;;;5089543;28;20180;-59
2022/11/30 01:24:46;;;;;;;33.07;15.93;;;;;;;;;;5074843;28;20168;-59
2022/11/30 01:27:11;;;;;;;33.57;17.07;;;6.50;99.90;;;;;;5091948;28;20220;-59
2022/11/30 01:29:37;;;;;;;37.20;17.07;;;7.20;99.90;;;;;;5082000;28;20542;-59
2022/11/30 01:32:03;;;;;;;41.57;17.63;;;;;;;;;;5053719;28;20678;-59
2022/11/30 01:34:29;;;;;;;36.17;16.87;;;6.60;99.90;;;;;;5077359;28;20228;-59
2022/11/30 01:36:55;;;;;;;38.70;16.40;;;;;;;;;;5072368;28;20691;-59
2022/11/30 01:39:21;;;;;;;34.60;16.33;;;6.40;99.90;;;;;;5087004;28;20250;-59
2022/11/30 01:41:46;;;;;;;36.27;17.33;;;6.40;99.90;;;;;;5091550;28;20215;-59
2022/11/30 01:44:15;;;;;;;31.53;16.03;;;6.50;99.90;;;;;;5083311;28;20208;-59
2022/11/30 01:46:48;;;;;;;34.83;17.40;;;6.70;99.90;;;;;;5071527;28;20183;-59
2022/11/30 01:49:22;;;;;;;40.20;18.63;;;6.60;99.90;;;;;;5076330;28;20175;-59
2022/11/30 01:51:52;;;;;;;39.50;18.33;;;6.50;99.90;;;;;;5091336;28;20211;-59
2022/11/30 01:54:25;;;;;;;39.27;18.00;;;6.60;99.90;;;;;;5083018;28;20238;-59
2022/11/30 01:56:58;;;;;;;41.57;18.03;;;6.40;99.90;;;;;;5081297;28;20180;-59
2022/11/30 01:59:24;;;;;;;39.60;18.57;;;6.60;99.90;;;;;;5078504;28;20176;-58
2022/11/30 02:01:52;;;;;;;41.43;18.63;;;6.70;99.90;;;;;;5071152;28;20176;-58
2022/11/30 02:04:28;;;;;;;38.40;18.83;;;7.00;99.90;;;;;;5081887;28;20187;-58
2022/11/30 02:06:56;;;;;;;37.00;17.63;;;6.50;99.90;;;;;;5073222;28;20202;-58
2022/11/30 02:09:22;;;;;;;40.27;18.73;;;6.70;99.90;;;;;;5075005;28;20172;-56
2022/11/30 02:11:49;;;;;;;42.97;18.60;;;6.40;99.90;;;;;;5107821;28;20285;-57
2022/11/30 02:14:38;;;;;;;39.77;19.40;;;6.70;99.90;;;;;;5100211;28;20940;-57
2022/11/30 02:17:20;;;;;;;40.70;18.73;;;6.30;99.90;;;;;;5075066;28;20233;-57
2022/11/30 02:20:07;;;;;;;38.57;18.87;;;6.50;99.90;;;;;;5074826;28;20184;-57
2022/11/30 02:22:42;;;;;;;43.53;19.27;;;6.40;99.90;;;;;;5071100;28;20183;-57
2022/11/30 02:25:24;;;;;;;43.77;17.70;;;6.50;99.90;;;;;;5087545;28;20188;-58
2022/11/30 02:28:20;;;;;;;43.93;19.03;;;6.60;99.90;;;;;;5077124;28;20183;-57
2022/11/30 02:30:49;;;;;;;46.43;18.90;;;6.60;99.90;;;;;;5086731;28;20207;-57
2022/11/30 02:33:17;;;;;;;42.67;18.63;;;6.40;99.90;;;;;;5088495;28;20241;-57
2022/11/30 02:35:47;;;;;;;41.47;19.47;;;6.30;99.90;;;;;;5070579;28;20181;-57
2022/11/30 02:38:14;;;;;;;38.73;18.93;;;6.40;99.90;;;;;;5073317;28;20175;-57
2022/11/30 02:40:39;;;;;;;41.47;19.87;;;6.50;99.90;;;;;;5090752;28;20186;-57
2022/11/30 02:43:06;;;;;;;49.93;19.70;;;6.50;99.90;;;;;;5090558;28;20641;-57
2022/11/30 02:45:47;;;;;;;41.00;19.07;;;6.40;99.90;;;;;;5084851;28;20180;-57
2022/11/30 02:48:16;;;;;;;44.27;18.53;;;5.80;99.90;;;;;;5073245;28;20184;-57
2022/11/30 02:50:52;;;;;;;47.93;20.27;;;6.50;99.90;;;;;;5090701;28;20250;-57
2022/11/30 02:53:18;;;;;;;46.63;20.03;;;6.60;99.90;;;;;;5087933;28;20171;-57
2022/11/30 02:55:44;;;;;;;47.10;20.23;;;6.60;99.90;;;;;;5070878;28;20184;-57
2022/11/30 02:58:10;;;;;;;47.20;19.93;;;6.70;99.90;;;;;;5070891;28;20183;-57
2022/11/30 03:00:36;;;;;;;41.53;19.20;;;6.50;99.90;;;;;;5080803;28;20183;-57
2022/11/30 03:03:01;;;;;;;47.43;20.30;;;6.70;99.90;;;;;;5089854;28;20172;-60
2022/11/30 03:05:27;;;;;;;44.90;20.03;;;6.40;99.90;;;;;;5072984;28;20172;-58
2022/11/30 03:07:53;;;;;;;45.00;18.87;;;6.40;99.90;;;;;;5072212;28;20187;-57
2022/11/30 03:10:18;;;;;;;40.70;19.17;;;6.90;99.90;;;;;;5078625;28;20200;-57
2022/11/30 03:12:44;;;;;;;44.93;19.33;;;6.50;99.90;;;;;;5074033;28;20226;-57
2022/11/30 03:15:10;;;;;;;42.43;18.33;;;6.40;99.90;;;;;;5103089;28;20250;-57
2022/11/30 03:17:36;;;;;;;42.33;18.43;;;;;;;;;;5070798;28;20192;-57
2022/11/30 03:20:01;;;;;;;39.77;18.70;;;6.70;99.90;;;;;;5087857;28;20654;-57
2022/11/30 03:22:27;;;;;;;41.37;17.83;;;6.50;99.90;;;;;;5088233;28;20191;-57
2022/11/30 03:24:53;;;;;;;40.33;16.83;;;6.50;99.90;;;;;;5074736;28;20259;-57
2022/11/30 03:27:19;;;;;;;40.87;17.90;;;;;;;;;;5070730;28;20522;-57
2022/11/30 03:29:44;;;;;;;42.40;18.10;;;6.70;99.90;;;;;;4661376;22;22098;-57
2022/11/30 03:32:10;;;;;;;39.20;17.47;;;6.70;99.90;;;;;;5058903;23;20221;-58
2022/11/30 03:34:35;;;;;;;43.10;19.23;;;6.60;99.90;;;;;;5046359;28;20213;-58
2022/11/30 03:37:01;;;;;;;42.83;19.23;;;6.40;99.90;;;;;;5054036;28;20699;-57
2022/11/30 03:39:27;;;;;;;41.20;18.20;;;;;;;;;;5053153;28;20188;-57
2022/11/30 03:41:53;;;;;;;42.10;18.77;;;6.40;99.90;;;;;;5052208;28;20195;-57
2022/11/30 03:44:18;;;;;;;41.63;19.07;;;6.60;99.90;;;;;;5053091;28;20502;-58
2022/11/30 03:46:44;;;;;;;43.93;18.57;;;6.50;99.90;;;;;;5053402;28;20217;-58
2022/11/30 03:49:09;;;;;;;40.37;17.80;;;6.50;99.90;;;;;;5044564;28;20181;-57
2022/11/30 03:51:35;;;;;;;42.53;20.07;;;6.70;99.90;;;;;;5033619;28;20222;-57
2022/11/30 03:54:01;;;;;;;37.07;17.50;;;6.40;99.90;;;;;;5033776;28;20261;-57
2022/11/30 03:56:27;;;;;;;41.83;19.73;;;7.30;99.90;;;;;;5045029;28;20635;-57
2022/11/30 03:58:53;;;;;;;39.37;17.97;;;6.60;99.90;;;;;;5047127;28;20178;-57
2022/11/30 04:01:22;;;;;;;42.33;20.30;;;6.60;99.90;;;;;;5038420;28;20248;-58
2022/11/30 04:03:49;;;;;;;42.83;19.50;;;6.50;99.90;;;;;;5043692;28;20173;-57
2022/11/30 04:06:15;;;;;;;45.47;19.93;;;6.50;99.90;;;;;;5052782;28;20223;-57
2022/11/30 04:08:41;;;;;;;42.27;19.50;;;6.50;99.90;;;;;;5053002;28;20200;-58
2022/11/30 04:11:07;;;;;;;44.63;20.37;;;6.40;99.90;;;;;;5051638;28;20686;-57
2022/11/30 04:13:34;;;;;;;40.33;17.67;;;6.60;99.90;;;;;;5052933;28;20177;-57
2022/11/30 04:16:00;;;;;;;42.70;19.33;;;6.60;99.90;;;;;;5040175;28;20632;-57
2022/11/30 04:18:28;;;;;;;46.57;20.13;;;6.50;99.90;;;;;;5053217;28;20170;-57
2022/11/30 04:20:55;;;;;;;43.63;19.33;;;6.50;99.90;;;;;;5052983;28;20177;-58
2022/11/30 04:23:22;;;;;;;44.67;20.07;;;;;;;;;;5047821;28;20240;-57
2022/11/30 04:25:48;;;;;;;43.53;19.80;;;6.60;99.90;;;;;;5039468;28;20181;-58
2022/11/30 04:28:15;;;;;;;42.63;18.90;;;6.70;99.90;;;;;;5051276;28;20236;-57
2022/11/30 04:30:41;;;;;;;45.97;21.17;;;;;;;;;;5035098;28;20671;-57
2022/11/30 04:33:07;;;;;;;44.67;20.83;;;6.50;99.90;;;;;;5017624;28;20178;-58
2022/11/30 04:35:37;;;;;;;47.80;20.97;;;6.60;99.90;;;;;;5048036;28;20186;-57
2022/11/30 04:38:03;;;;;;;46.80;20.40;;;6.40;99.90;;;;;;5049782;28;20169;-58
2022/11/30 04:40:28;;;;;;;46.57;21.57;;;6.60;99.90;;;;;;5052100;28;20176;-57
2022/11/30 04:42:54;;;;;;;46.90;20.60;;;6.60;99.90;;;;;;5052662;28;20252;-58
2022/11/30 04:45:19;;;;;;;45.20;18.60;;;6.30;99.90;;;;;;5051148;28;20529;-58
2022/11/30 04:47:45;;;;;;;43.80;19.00;;;7.00;99.90;;;;;;5052385;28;20177;-58
2022/11/30 04:50:11;;;;;;;38.80;18.40;;;6.50;99.90;;;;;;5052226;28;20228;-58
2022/11/30 04:52:36;;;;;;;43.80;17.87;;;8.00;99.90;;;;;;5052355;28;20192;-57
2022/11/30 04:55:05;;;;;;;45.90;18.60;;;6.20;99.90;;;;;;5052056;28;20177;-57
2022/11/30 04:57:31;;;;;;;38.00;18.53;;;5.90;99.90;;;;;;5039205;28;20190;-58
2022/11/30 04:59:56;;;;;;;43.30;18.00;;;6.20;99.90;;;;;;5048859;28;20181;-58
2022/11/30 05:02:22;;;;;;;44.07;18.47;;;6.10;99.90;;;;;;5034560;28;20217;-57
2022/11/30 05:04:47;;;;;;;44.67;17.73;;;6.10;99.90;;;;;;5032494;28;20603;-57
2022/11/30 05:07:13;;;;;;;37.40;16.47;;;6.70;99.90;;;;;;5039659;28;20212;-57
2022/11/30 05:09:39;;;;;;;40.97;17.17;;;5.90;99.90;;;;;;5051485;28;20486;-58
2022/11/30 05:12:04;;;;;;;44.60;18.13;;;6.00;99.90;;;;;;5051629;28;20533;-58
2022/11/30 05:14:30;;;;;;;39.13;17.70;;;6.10;99.90;;;;;;5049437;28;20169;-58
2022/11/30 05:16:56;;;;;;;35.77;17.30;;;6.00;99.90;;;;;;5032206;28;20193;-58
2022/11/30 05:19:21;;;;;;;39.57;17.57;;;6.90;99.90;;;;;;5036917;28;20260;-58
2022/11/30 05:21:47;;;;;;;41.20;17.47;;;6.20;99.90;;;;;;5047557;28;20644;-58
2022/11/30 05:24:12;;;;;;;45.40;17.97;;;6.40;99.90;;;;;;5048995;28;20639;-58
2022/11/30 05:26:38;;;;;;;40.00;18.03;;;6.10;99.90;;;;;;5032057;28;20663;-58
2022/11/30 05:29:04;;;;;;;41.20;18.27;;;6.40;99.90;;;;;;5036612;28;20226;-58
2022/11/30 05:31:31;;;;;;;41.83;18.50;;;6.20;99.90;;;;;;5031782;28;20213;-58
2022/11/30 05:33:57;;;;;;;39.27;17.53;;;;;;;;;;5041020;28;20173;-58
2022/11/30 05:36:23;;;;;;;44.20;17.97;;;6.10;99.90;;;;;;5045228;28;20284;-58
2022/11/30 05:38:49;;;;;;;40.37;17.50;;;6.00;99.90;;;;;;5051099;28;20177;-57
2022/11/30 05:41:14;;;;;;;39.97;17.87;;;6.00;99.90;;;;;;5051327;28;20268;-58
2022/11/30 05:43:40;;;;;;;43.30;17.63;;;6.00;99.90;;;;;;5049988;28;20169;-58
2022/11/30 05:46:08;;;;;;;42.60;17.50;;;6.00;99.90;;;;;;5051298;28;20212;-58
2022/11/30 05:48:34;;;;;;;41.37;18.30;;;6.20;99.90;;;;;;5051171;28;20182;-58
2022/11/30 05:51:12;;;;;;;42.40;18.40;;;6.10;99.90;;;;;;5050997;28;20216;-58
2022/11/30 05:53:38;;;;;;;45.20;17.63;;;6.10;99.90;;;;;;5051036;28;20234;-57
2022/11/30 05:56:07;;;;;;;44.50;19.30;;;6.30;99.90;;;;;;5033832;28;20235;-57
2022/11/30 05:58:32;;;;;;;40.23;17.23;;;5.90;99.90;;;;;;5036437;28;20706;-58
2022/11/30 06:00:58;;;;;;;42.03;18.10;;;6.20;99.90;;;;;;5036807;28;20220;-58
2022/11/30 06:03:23;;;;;;;41.87;17.77;;;5.90;99.90;;;;;;5031320;28;20647;-58
2022/11/30 06:05:50;;;;;;;39.63;18.20;;;6.10;99.90;;;;;;5031380;28;20169;-58
2022/11/30 06:08:17;;;;;;;40.83;17.13;;;6.00;99.90;;;;;;5031281;28;20174;-58
2022/11/30 06:10:42;;;;;;;42.63;18.47;;;6.40;99.90;;;;;;5019413;28;20671;-59
2022/11/30 06:13:08;;;;;;;44.53;18.90;;;5.90;99.90;;;;;;5045871;28;20177;-59
2022/11/30 06:15:36;;;;;;;40.97;19.37;;;6.20;99.90;;;;;;5031361;28;20251;-59
2022/11/30 06:18:02;;;;;;;36.57;17.30;;;6.00;99.90;;;;;;5013446;28;20180;-59
2022/11/30 06:20:28;;;;;;;40.23;17.97;;;6.10;99.90;;;;;;5031097;28;20178;-60
2022/11/30 06:22:54;;;;;;;41.13;18.30;;;;;;;;;;5035965;28;20162;-59
2022/11/30 06:25:20;;;;;;;41.27;18.37;;;6.20;99.90;;;;;;5040450;28;20181;-58
2022/11/30 06:27:46;;;;;;;37.20;16.83;;;;;;;;;;5050622;28;20188;-59
2022/11/30 06:30:12;;;;;;;36.27;16.53;;;6.00;99.90;;;;;;5046186;28;20197;-58
2022/11/30 06:32:37;;;;;;;38.03;16.80;;;6.20;99.90;;;;;;5031022;28;20194;-59
2022/11/30 06:35:04;;;;;;;37.93;17.47;;;;;;;;;;5030840;28;20231;-59
2022/11/30 06:37:33;;;;;;;37.47;16.97;;;6.20;99.90;;;;;;5034847;28;20652;-59
2022/11/30 06:39:59;;;;;;;38.77;16.63;;;6.10;99.90;;;;;;5042777;28;20178;-58
2022/11/30 06:42:24;;;;;;;41.97;18.20;;;6.10;99.90;;;;;;5041270;28;20195;-58
2022/11/30 06:44:50;;;;;;;43.80;18.20;;;6.10;99.90;;;;;;5049086;28;20179;-59
2022/11/30 06:47:15;;;;;;;36.13;17.77;;;5.90;99.90;;;;;;5050425;28;20537;-58
2022/11/30 06:49:41;;;;;;;37.57;17.13;;;6.00;99.90;;;;;;5050312;28;20181;-59
2022/11/30 06:52:07;;;;;;;39.20;16.67;;;5.90;99.90;;;;;;5050689;28;20201;-59
2022/11/30 06:54:32;;;;;;;36.10;16.57;;;6.10;99.90;;;;;;5037702;28;20692;-59
2022/11/30 06:56:58;;;;;;;37.73;16.13;;;6.00;99.90;;;;;;5030696;28;20185;-58
2022/11/30 06:59:23;;;;;;;40.90;17.33;;;6.00;99.90;;;;;;5036671;28;20173;-59
2022/11/30 07:01:49;;;;;;;37.10;15.47;;;5.80;99.90;;;;;;5050283;28;20581;-59
2022/11/30 07:04:14;;;;;;;40.90;17.50;;;5.90;99.90;;;;;;5050250;28;20173;-59
2022/11/30 07:06:40;;;;;;;38.40;16.87;;;6.00;99.90;;;;;;5050317;28;20604;-58
2022/11/30 07:09:06;;;;;;;38.87;16.93;;;;;;;;;;5051006;28;20555;-59
2022/11/30 07:11:32;;;;;;;42.43;17.10;;;;;;;;;;5038038;28;20691;-59
2022/11/30 07:13:59;;;;;;;33.30;15.37;;;6.00;99.90;;;;;;5042596;28;20181;-59
2022/11/30 07:16:24;;;;;;;34.10;16.87;;;6.00;99.90;;;;;;5047692;28;20189;-59
2022/11/30 07:18:50;;;;;;;36.57;16.47;;;;;;;;;;5034402;28;20542;-59
2022/11/30 07:21:16;;;;;;;35.57;16.57;;;6.00;99.90;;;;;;5034325;28;20293;-59
2022/11/30 07:26:26;;;;;;;34.17;16.27;;;6.00;99.90;;;;;;5054562;28;20227;-59
2022/11/30 07:28:59;;;;;;;42.33;16.90;;;;;;;;;;5041107;28;20478;-59
2022/11/30 07:31:29;;;;;;;36.00;16.60;;;5.80;99.90;;;;;;5053449;28;20231;-59
2022/11/30 07:33:56;;;;;;;40.07;17.07;;;5.80;99.90;;;;;;5043503;28;20185;-59
2022/11/30 07:36:24;;;;;;;36.57;17.00;;;5.70;99.90;;;;;;5039719;28;20185;-59
2022/11/30 07:38:50;;;;;;;40.73;17.00;;;5.50;99.90;;;;;;5053049;28;20189;-59
2022/11/30 07:41:16;;;;;;;41.30;17.47;;;5.40;99.90;;;;;;5052998;28;20252;-59
2022/11/30 07:43:42;;;;;;;45.80;16.97;;;5.60;99.90;;;;;;5050778;28;20177;-59
2022/11/30 07:46:10;;;;;;;45.30;18.57;;;5.60;99.90;;;;;;5046193;28;20188;-59
2022/11/30 07:48:36;;;;;;;44.03;18.43;;;;;;;;;;5049902;28;20177;-59
2022/11/30 07:51:04;;;;;;;44.40;17.73;;;5.50;99.90;;;;;;5052827;28;20717;-59
2022/11/30 07:53:30;;;;;;;51.07;19.33;;;;;;;;;;5051903;28;20173;-59
2022/11/30 07:56:08;;;;;;;54.70;20.67;;;5.60;99.90;;;;;;5052838;28;20268;-59
2022/11/30 07:58:34;;;;;;;53.00;20.30;;;;;;;;;;5051817;28;20200;-60
2022/11/30 08:01:05;;;;;;;53.47;21.60;;;6.50;99.90;;;;;;5051630;28;20184;-59
2022/11/30 08:03:31;;;;;;;55.40;20.63;;;5.60;99.90;;;;;;5052722;28;20224;-58
2022/11/30 08:06:11;;;;;;;54.10;20.13;;;5.90;99.90;;;;;;5052346;28;20181;-59
2022/11/30 08:08:41;;;;;;;53.27;20.20;;;5.80;99.90;;;;;;5053326;28;20181;-58
2022/11/30 08:11:09;;;;;;;55.93;19.67;;;5.60;99.90;;;;;;5053155;28;20859;-59
2022/11/30 08:13:35;;;;;;;56.97;21.57;;;5.50;99.90;;;;;;5052415;28;20173;-58
2022/11/30 08:16:06;;;;;;;62.00;21.23;;;5.90;99.90;;;;;;5052531;28;20184;-58
2022/11/30 08:18:32;;;;;;;55.33;21.70;;;5.90;99.90;;;;;;5036948;28;20261;-59
2022/11/30 08:20:59;;;;;;;55.67;20.27;;;5.90;99.90;;;;;;5051366;28;20252;-58
2022/11/30 08:23:27;;;;;;;52.60;21.47;;;5.80;99.90;;;;;;5051167;28;20655;-59
2022/11/30 08:25:53;;;;;;;51.10;21.47;;;5.80;99.90;;;;;;5051271;28;20208;-60
2022/11/30 08:28:19;;;;;;;53.43;21.10;;;6.00;99.90;;;;;;5039363;28;20285;-60
2022/11/30 08:30:44;;;;;;;51.77;20.30;;;6.20;99.90;;;;;;5050585;28;20709;-59
2022/11/30 08:33:10;;;;;;;55.13;21.13;;;6.30;99.90;;;;;;5048436;28;20173;-60
2022/11/30 08:35:36;;;;;;;53.07;20.63;;;;;;;;;;5032856;28;20709;-59
2022/11/30 08:38:01;;;;;;;51.43;20.57;;;6.10;99.90;;;;;;5035248;28;20180;-59
2022/11/30 08:40:27;;;;;;;52.27;21.13;;;;;;;;;;5052654;28;20176;-59
2022/11/30 08:42:53;;;;;;;51.30;21.07;;;5.90;99.90;;;;;;5052680;28;20177;-59
2022/11/30 08:45:18;;;;;;;48.77;20.37;;;5.90;99.90;;;;;;5038626;28;20178;-58
2022/11/30 08:47:44;;;;;;;50.80;20.93;;;;;;;;;;5036525;28;20193;-58
2022/11/30 08:50:11;;;;;;;48.30;20.07;;;;;;;;;;5044345;28;20740;-58
2022/11/30 08:52:36;;;;;;;46.37;19.50;;;6.10;99.90;;;;;;5052452;28;20189;-58
2022/11/30 08:55:02;;;;;;;46.70;20.27;;;;;;;;;;5034133;28;20648;-58
2022/11/30 08:57:28;;;;;;;47.47;19.03;;;6.20;99.90;;;;;;5032509;28;20196;-58
2022/11/30 08:59:53;;;;;;;49.43;20.13;;;6.30;99.90;;;;;;5032729;28;20640;-57
2022/11/30 09:02:19;;;;;;;49.20;20.43;;;6.30;99.90;;;;;;5046752;28;20247;-58
2022/11/30 09:04:47;;;;;;;50.53;20.57;;;6.70;99.90;;;;;;5040728;28;20173;-58
2022/11/30 09:07:13;;;;;;;50.00;21.03;;;6.40;99.90;;;;;;5037925;28;20203;-58
2022/11/30 09:09:39;;;;;;;43.60;20.03;;;;;;;;;;5032158;28;20163;-58
2022/11/30 09:12:06;;;;;;;54.60;20.80;;;6.40;99.90;;;;;;5032166;28;20213;-58
2022/11/30 09:14:31;;;;;;;48.77;20.40;;;6.40;99.90;;;;;;5036752;28;20178;-58
2022/11/30 09:16:57;;;;;;;47.93;20.03;;;6.30;99.90;;;;;;5052133;28;20174;-58
2022/11/30 09:19:24;;;;;;;43.27;19.63;;;6.30;99.90;;;;;;5052051;28;20635;-59
2022/11/30 09:21:49;;;;;;;46.17;20.23;;;6.20;99.90;;;;;;5052027;28;20275;-59
2022/11/30 09:24:15;;;;;;;51.73;20.47;;;6.20;99.90;;;;;;5051434;28;20709;-59
2022/11/30 09:26:41;;;;;;;45.13;19.87;;;;;;;;;;5051964;28;20627;-58
2022/11/30 09:29:07;;;;;;;49.63;21.03;;;6.00;99.90;;;;;;5051885;28;20173;-57
2022/11/30 09:31:33;;;;;;;42.03;19.90;;;6.70;99.90;;;;;;5033075;28;20229;-58
2022/11/30 09:33:58;;;;;;;42.40;19.30;;;6.60;99.90;;;;;;5047721;28;20177;-56
2022/11/30 09:36:26;;;;;;;44.37;19.10;;;6.60;99.90;;;;;;5044524;28;20177;-56
2022/11/30 09:38:52;;;;;;;44.77;20.07;;;6.50;99.90;;;;;;5051585;28;20200;-58
2022/11/30 09:41:27;;;;;;;47.87;21.47;;;6.50;99.90;;;;;;5051595;28;20169;-58
2022/11/30 09:44:11;;;;;;;50.37;20.20;;;6.30;99.90;;;;;;5035805;28;20174;-58
2022/11/30 09:46:43;;;;;;;48.70;20.63;;;6.20;99.90;;;;;;5051436;28;20180;-59
2022/11/30 09:49:28;;;;;;;49.40;21.77;;;6.30;99.90;;;;;;5050847;28;20177;-59
2022/11/30 09:51:55;;;;;;;47.60;19.60;;;6.40;99.90;;;;;;5049922;28;20216;-60
2022/11/30 09:54:36;;;;;;;50.63;20.83;;;6.50;99.90;;;;;;5047837;28;20178;-60
2022/11/30 09:57:27;;;;;;;49.63;20.67;;;6.80;99.90;;;;;;5050676;28;20188;-59
2022/11/30 10:00:09;;;;;;;47.97;20.67;;;6.90;99.90;;;;;;5051379;28;20181;-59
2022/11/30 10:02:37;;;;;;;44.40;20.33;;;7.00;99.90;;;;;;5034872;28;20235;-59
2022/11/30 10:05:22;;;;;;;47.23;20.63;;;6.80;99.90;;;;;;5035151;28;20327;-60
2022/11/30 10:07:59;;;;;;;42.73;20.57;;;6.70;99.90;;;;;;5042271;28;20295;-59
2022/11/30 10:10:37;;;;;;;46.57;19.80;;;6.40;99.90;;;;;;5051255;28;20235;-59
2022/11/30 10:13:05;;;;;;;47.20;20.67;;;6.80;99.90;;;;;;5050911;28;20180;-58
2022/11/30 10:15:39;;;;;;;46.80;20.00;;;6.80;99.90;;;;;;5051047;28;20166;-59
2022/11/30 10:18:20;;;;;;;43.67;19.77;;;7.10;99.90;;;;;;5050301;28;20690;-58
2022/11/30 10:21:13;;;;;;;42.37;19.07;;;7.10;99.90;;;;;;5050930;28;20260;-58
2022/11/30 10:24:08;;;;;;;42.07;19.57;;;7.00;99.90;;;;;;5051043;28;20181;-57
2022/11/30 10:26:38;;;;;;;43.57;18.97;;;7.30;99.90;;;;;;5013569;28;20185;-57
2022/11/30 10:29:13;;;;;;;41.67;19.37;;;7.70;99.90;;;;;;5036033;28;20173;-57
2022/11/30 10:31:41;;;;;;;40.80;18.67;;;7.50;99.90;;;;;;5038335;28;20224;-58
2022/11/30 10:34:34;;;;;;;40.47;18.90;;;7.30;99.90;;;;;;5030727;28;20170;-57
2022/11/30 10:37:13;;;;;;;37.43;18.40;;;7.30;99.90;;;;;;5020596;28;20304;-57
2022/11/30 10:39:59;;;;;;;34.57;17.43;;;6.90;99.90;;;;;;5030879;28;20170;-57
2022/11/30 10:42:29;;;;;;;37.13;17.23;;;6.80;99.90;;;;;;5038904;28;20267;-57
2022/11/30 10:45:26;;;;;;;42.10;17.27;;;7.00;99.90;;;;;;5051131;28;20273;-57
2022/11/30 10:48:29;;;;;;;39.93;18.00;;;7.10;99.90;;;;;;5037489;28;20185;-57
2022/11/30 10:50:55;;;;;;;40.27;17.83;;;;;;;;;;5021285;28;20255;-56
2022/11/30 10:53:21;;;;;;;44.03;18.93;;;5.50;99.90;;;;;;5053726;28;20196;-56
2022/11/30 10:56:09;;;;;;;45.50;20.70;;;7.50;99.90;;;;;;5050594;28;20647;-57
2022/11/30 10:58:48;;;;;;;40.03;18.37;;;7.40;99.90;;;;;;5050728;28;20182;-59
2022/11/30 11:01:38;;;;;;;41.20;19.30;;;7.40;99.90;;;;;;5053678;28;20176;-58
2022/11/30 11:04:16;;;;;;;42.57;17.50;;;7.80;99.90;;;;;;5038226;28;20659;-59
2022/11/30 11:06:42;;;;;;;40.53;18.07;;;;;;;;;;5054621;28;20749;-59
2022/11/30 11:09:29;;;;;;;42.43;18.57;;;7.50;99.90;;;;;;5040553;28;20253;-59
2022/11/30 11:12:05;;;;;;;40.43;17.53;;;7.60;99.90;;;;;;5043686;28;20208;-59
2022/11/30 11:14:32;;;;;;;40.57;17.53;;;7.60;99.90;;;;;;5040845;28;20255;-59
2022/11/30 11:17:21;;;;;;;35.77;16.53;;;7.50;99.90;;;;;;5053572;28;20177;-60
2022/11/30 11:19:48;;;;;;;33.83;16.70;;;7.70;99.90;;;;;;5035882;28;20182;-60
2022/11/30 11:22:18;;;;;;;31.03;15.70;;;7.30;99.90;;;;;;5016408;28;20244;-60
2022/11/30 11:24:44;;;;;;;32.80;16.20;;;7.60;99.90;;;;;;5034336;28;20205;-60
2022/11/30 11:27:32;;;;;;;33.77;16.07;;;7.80;99.90;;;;;;5041497;28;20224;-60
2022/11/30 11:30:14;;;;;;;33.37;15.50;;;7.90;99.90;;;;;;5044032;28;20166;-60
2022/11/30 11:32:40;;;;;;;33.53;15.70;;;;;;;;;;5048390;28;20217;-60
2022/11/30 11:35:30;;;;;;;31.03;14.77;;;7.80;99.90;;;;;;5053448;28;20188;-60
2022/11/30 11:37:56;;;;;;;29.97;14.83;;;7.90;99.90;;;;;;5044316;28;20189;-60
2022/11/30 11:40:23;;;;;;;27.33;14.10;;;7.80;99.90;;;;;;5022847;28;20231;-60
2022/11/30 11:42:53;;;;;;;32.27;13.83;;;7.70;99.90;;;;;;5033659;28;20207;-60
2022/11/30 11:45:25;;;;;;;31.07;13.63;;;7.80;99.90;;;;;;5032936;28;20322;-60
2022/11/30 11:48:04;;;;;;;28.33;13.30;;;7.80;99.90;;;;;;5031542;28;20182;-60
2022/11/30 11:50:32;;;;;;;28.13;13.23;;;7.70;99.90;;;;;;5032526;28;20208;-60
2022/11/30 11:53:23;;;;;;;29.77;14.90;;;7.90;99.90;;;;;;5041120;28;20193;-60
2022/11/30 11:55:56;;;;;;;31.07;14.40;;;8.20;99.90;;;;;;5052412;28;20185;-60
2022/11/30 11:58:37;;;;;;;32.37;14.13;;;8.10;99.90;;;;;;5053824;28;20177;-60
2022/11/30 12:01:08;;;;;;;32.73;14.77;;;7.80;99.90;;;;;;5053356;28;20177;-60
2022/11/30 12:03:53;;;;;;;36.00;15.77;;;7.80;99.90;;;;;;5053468;28;20185;-60
2022/11/30 12:06:19;;;;;;;33.23;15.90;;;8.00;99.90;;;;;;5044452;28;20220;-60
2022/11/30 12:08:49;;;;;;;36.50;16.13;;;8.10;99.90;;;;;;5038072;28;20174;-60
2022/11/30 12:11:20;;;;;;;39.57;16.50;;;8.40;99.90;;;;;;5046722;28;20212;-60
2022/11/30 12:13:46;;;;;;;41.43;17.00;;;8.10;99.90;;;;;;5040234;28;20964;-60
2022/11/30 12:16:14;;;;;;;39.53;15.93;;;;;;;;;;5032820;28;20311;-60
2022/11/30 12:19:17;;;;;;;38.40;15.77;;;6.70;99.90;;;;;;5048280;28;20181;-59
2022/11/30 12:22:13;;;;;;;39.17;16.37;;;8.30;99.90;;;;;;5026244;28;20197;-60
2022/11/30 12:25:19;;;;;;;39.33;16.97;;;8.40;99.90;;;;;;5051207;28;20204;-60
2022/11/30 12:28:05;;;;;;;43.37;16.97;;;8.20;99.90;;;;;;5032725;28;20193;-59
2022/11/30 12:30:40;;;;;;;44.67;17.10;;;8.30;99.90;;;;;;5022015;28;20229;-60
2022/11/30 12:33:06;;;;;;;46.47;18.03;;;;;;;;;;5052849;28;20264;-60
2022/11/30 12:35:57;;;;;;;47.17;18.20;;;8.40;99.90;;;;;;5052483;28;20185;-60
2022/11/30 12:38:36;;;;;;;42.10;18.00;;;8.70;99.90;;;;;;5052869;28;20690;-60
2022/11/30 12:41:30;;;;;;;49.17;17.53;;;8.50;99.90;;;;;;5052830;28;20242;-61
2022/11/30 12:44:08;;;;;;;50.13;17.60;;;8.20;99.90;;;;;;5052642;28;20264;-60
2022/11/30 12:46:58;;;;;;;49.40;18.03;;;8.40;99.90;;;;;;5052961;28;20187;-60
2022/11/30 12:49:38;;;;;;;49.77;17.90;;;8.70;99.90;;;;;;5052109;28;20173;-60
2022/11/30 12:52:15;;;;;;;47.00;17.23;;;8.60;99.90;;;;;;5052632;28;20219;-60
2022/11/30 12:55:18;;;;;;;45.73;16.23;;;8.80;99.90;;;;;;5052801;28;20195;-59
2022/11/30 12:57:57;;;;;;;43.73;16.93;;;8.70;99.90;;;;;;5040439;28;20281;-60
2022/11/30 13:00:25;;;;;;;49.30;18.83;;;8.60;99.90;;;;;;5048724;28;20184;-60
2022/11/30 13:03:13;;;;;;;51.07;18.07;;;8.70;99.90;;;;;;5044779;28;20671;-60